Time;durP1;ratioP1;P1;durP2;ratioP2;P2;SDS_P1;SDS_P2;PMS_P1;PMS_P2;Temp;Humidity;BMP_temperature;BMP_pressure;BME280_temperature;BME280_humidity;BME280_pressure;Samples;Min_cycle;Max_cycle;Signal;HPM_P1;HPM_P2
2024/01/06 00:01:36;;;;;;;2.37;2.23;;;;;;;7.14;82.53;98560.38;5117267;28;20465;-66
2024/01/06 00:04:06;;;;;;;9.20;2.05;;;;;;;7.14;82.32;98560.38;5117046;28;20071;-66
2024/01/06 00:06:35;;;;;;;2.22;1.02;;;;;;;7.15;82.15;98551.94;5117435;28;20074;-66
2024/01/06 00:09:04;;;;;;;4.68;1.60;;;;;;;7.13;81.87;98538.41;5117657;28;20419;-67
2024/01/06 00:11:33;;;;;;;2.03;1.58;;;;;;;7.13;82.78;98543.47;5117035;28;20044;-67
2024/01/06 00:14:02;;;;;;;2.23;1.80;;;;;;;7.13;82.16;98536.72;5116896;28;20119;-66
2024/01/06 00:16:31;;;;;;;0.88;0.80;;;;;;;7.14;82.28;98538.41;5117266;28;20040;-66
2024/01/06 00:19:00;;;;;;;0.50;0.50;;;;;;;7.13;82.47;98535.84;5117686;28;20040;-66
2024/01/06 00:21:31;;;;;;;1.50;1.40;;;;;;;7.15;82.23;98542.59;5117153;28;20043;-66
2024/01/06 00:24:00;;;;;;;1.98;1.77;;;;;;;7.13;81.93;98533.31;5115332;28;20359;-66
2024/01/06 00:26:28;;;;;;;2.10;1.27;;;;;;;7.09;81.86;98527.44;5117481;28;20048;-67
2024/01/06 00:28:57;;;;;;;0.47;0.47;;;;;;;7.08;82.36;98530.00;5115807;28;20052;-68
2024/01/06 00:31:26;;;;;;;1.65;1.55;;;;;;;7.07;82.86;98524.06;5117280;28;20284;-65
2024/01/06 00:33:55;;;;;;;2.70;1.60;;;;;;;7.05;81.92;98530.84;5116508;28;20097;-66
2024/01/06 00:36:25;;;;;;;1.95;1.85;;;;;;;7.05;83.13;98535.06;5116740;28;20452;-67
2024/01/06 00:38:55;;;;;;;1.55;1.45;;;;;;;7.01;83.31;98528.31;5116835;28;20035;-67
2024/01/06 00:41:24;;;;;;;0.55;0.55;;;;;;;6.97;83.37;98531.72;5116456;28;20055;-66
2024/01/06 00:43:53;;;;;;;1.60;1.50;;;;;;;6.98;82.42;98528.34;5116980;28;20043;-67
2024/01/06 00:46:22;;;;;;;1.43;1.23;;;;;;;6.96;82.76;98530.88;5116385;28;20489;-67
2024/01/06 00:48:52;;;;;;;5.50;2.20;;;;;;;6.95;83.05;98533.44;5116608;28;20031;-66
2024/01/06 00:51:21;;;;;;;0.80;0.80;;;;;;;6.94;83.00;98529.19;5116407;28;20618;-66
2024/01/06 00:53:51;;;;;;;3.83;2.80;;;;;;;6.94;83.24;98526.66;5116940;28;20039;-67
2024/01/06 00:56:21;;;;;;;1.47;1.37;;;;;;;6.94;82.88;98522.44;5116491;28;20040;-67
2024/01/06 00:58:50;;;;;;;2.15;1.80;;;;;;;6.94;83.10;98532.59;5116420;28;20272;-67
2024/01/06 01:01:19;;;;;;;0.97;0.93;;;;;;;6.93;83.47;98535.13;5098665;28;20047;-67
2024/01/06 01:03:48;;;;;;;1.20;1.10;;;;;;;6.90;83.28;98535.16;5115980;28;20082;-66
2024/01/06 01:06:17;;;;;;;2.60;2.40;;;;;;;6.89;83.79;98533.44;5115946;28;20043;-66
2024/01/06 01:08:46;;;;;;;3.38;1.90;;;;;;;6.88;84.25;98527.56;5116184;28;20039;-66
2024/01/06 01:11:15;;;;;;;1.43;1.37;;;;;;;6.88;83.87;98531.78;5116180;28;20047;-66
2024/01/06 01:13:45;;;;;;;;;;;;;;;6.90;84.17;98538.53;5114998;28;20858;-66
2024/01/06 01:16:15;;;;;;;2.03;1.83;;;;;;;6.91;83.77;98529.22;5115147;28;19919;-67
2024/01/06 01:18:43;;;;;;;9.50;1.88;;;;;;;6.91;83.54;98521.63;5116057;28;20027;-66
2024/01/06 01:21:12;;;;;;;3.45;1.85;;;;;;;6.88;84.37;98516.56;5116008;27;20114;-66
2024/01/06 01:23:41;;;;;;;2.60;2.40;;;;;;;6.87;83.90;98519.94;5115909;28;20502;-66
2024/01/06 01:26:10;;;;;;;0.93;0.90;;;;;;;6.83;84.27;98519.13;5115956;28;20092;-67
2024/01/06 01:28:39;;;;;;;3.93;1.43;;;;;;;6.80;84.38;98518.28;5115804;28;20036;-66
2024/01/06 01:31:09;;;;;;;2.53;1.73;;;;;;;6.78;84.15;98515.75;5115487;28;20272;-67
2024/01/06 01:33:38;;;;;;;4.45;2.42;;;;;;;6.80;84.08;98514.06;5115901;28;20036;-67
2024/01/06 01:36:07;;;;;;;0.90;0.85;;;;;;;6.80;84.54;98503.06;5115687;28;20031;-67
2024/01/06 01:38:37;;;;;;;1.40;1.25;;;;;;;6.75;84.94;98506.47;5114294;28;20073;-66
2024/01/06 01:41:05;;;;;;;0.80;0.80;;;;;;;6.73;84.78;98505.66;5115582;28;20040;-66
2024/01/06 01:43:34;;;;;;;0.87;0.87;;;;;;;6.76;83.89;98509.88;5115376;28;20039;-67
2024/01/06 01:46:03;;;;;;;1.47;1.37;;;;;;;6.75;84.49;98511.53;5115495;28;20306;-66
2024/01/06 01:48:34;;;;;;;0.88;0.88;;;;;;;6.78;84.36;98519.97;5115655;28;20051;-67
2024/01/06 01:51:04;;;;;;;13.20;1.83;;;;;;;6.77;84.48;98515.78;5115807;28;20062;-67
2024/01/06 01:53:33;;;;;;;1.50;1.40;;;;;;;6.72;84.86;98511.56;5113779;28;20089;-67
2024/01/06 01:56:21;;;;;;;1.80;1.43;;;;;;;6.68;85.32;98499.75;5114991;28;20043;-65
2024/01/06 01:58:49;;;;;;;2.10;1.98;;;;;;;6.70;84.62;98498.03;5115486;27;20075;-66
2024/01/06 02:01:19;;;;;;;1.80;1.70;;;;;;;6.68;85.40;98504.81;5115485;28;20039;-67
2024/01/06 02:03:49;;;;;;;0.93;0.68;;;;;;;6.68;85.14;98497.22;5114602;28;20055;-65
2024/01/06 02:06:18;;;;;;;1.88;1.35;;;;;;;6.67;85.00;98487.91;5115170;28;20118;-65
2024/01/06 02:08:47;;;;;;;0.90;0.90;;;;;;;6.66;84.88;98483.72;5114775;28;20067;-66
2024/01/06 02:11:16;;;;;;;2.58;1.77;;;;;;;6.64;85.39;98487.94;5114960;28;20036;-66
2024/01/06 02:13:45;;;;;;;1.48;1.33;;;;;;;6.63;85.22;98490.47;5114992;28;20077;-66
2024/01/06 02:16:14;;;;;;;0.97;0.93;;;;;;;6.62;85.36;98497.22;5113642;28;20047;-66
2024/01/06 02:18:43;;;;;;;2.27;1.87;;;;;;;6.62;85.08;98501.47;5113875;28;20044;-66
2024/01/06 02:21:16;;;;;;;1.08;0.63;;;;;;;6.60;85.06;98501.47;5114480;28;20052;-65
2024/01/06 02:23:46;;;;;;;2.42;1.73;;;;;;;6.62;85.60;98509.91;5114949;28;20048;-67
2024/01/06 02:26:15;;;;;;;0.95;0.95;;;;;;;6.61;85.55;98513.31;5114833;28;20053;-67
2024/01/06 02:28:47;;;;;;;4.13;3.10;;;;;;;6.58;86.14;98495.56;5115212;28;20039;-66
2024/01/06 02:31:16;;;;;;;1.00;0.93;;;;;;;6.60;85.80;98490.47;5114424;28;20276;-66
2024/01/06 02:33:45;;;;;;;2.53;1.08;;;;;;;6.65;85.54;98483.69;5114889;28;20032;-67
2024/01/06 02:36:14;;;;;;;0.40;0.40;;;;;;;6.64;86.13;98490.47;5114902;27;20500;-66
2024/01/06 02:38:43;;;;;;;0.80;0.80;;;;;;;6.63;85.62;98486.25;5114896;28;20024;-65
2024/01/06 02:41:14;;;;;;;2.10;1.63;;;;;;;6.64;85.72;98477.81;5114095;28;20036;-67
2024/01/06 02:43:43;;;;;;;1.17;1.05;;;;;;;6.65;85.46;98483.69;5114529;28;20088;-65
2024/01/06 02:46:12;;;;;;;3.33;2.22;;;;;;;6.60;85.53;98457.53;5114722;28;20039;-65
2024/01/06 02:48:41;;;;;;;3.33;2.37;;;;;;;6.66;85.89;98471.03;5114463;28;20044;-66
2024/01/06 02:51:11;;;;;;;0.60;0.60;;;;;;;6.66;85.61;98476.09;5114270;28;20043;-65
2024/01/06 02:53:40;;;;;;;1.63;1.52;;;;;;;6.63;86.00;98460.91;5114365;28;20054;-67
2024/01/06 02:56:11;;;;;;;0.50;0.50;;;;;;;6.68;86.24;98461.72;5114363;28;20035;-66
2024/01/06 02:58:41;;;;;;;1.80;1.13;;;;;;;6.66;85.56;98460.91;5113408;28;20058;-66
2024/01/06 03:01:12;;;;;;;0.57;0.57;;;;;;;6.67;86.47;98461.75;5114628;28;20442;-66
2024/01/06 03:03:41;;;;;;;0.45;0.45;;;;;;;6.68;86.03;98460.88;5113962;28;20100;-66
2024/01/06 03:06:10;;;;;;;1.38;1.27;;;;;;;6.67;86.32;98467.63;5114198;28;20401;-66
2024/01/06 03:08:39;;;;;;;0.93;0.93;;;;;;;6.65;86.71;98469.34;5113952;28;20389;-67
2024/01/06 03:11:08;;;;;;;1.57;1.47;;;;;;;6.61;86.76;98467.69;5114231;28;20048;-67
2024/01/06 03:13:37;;;;;;;1.97;1.87;;;;;;;6.60;86.47;98468.50;5114320;28;20044;-65
2024/01/06 03:16:07;;;;;;;1.50;1.40;;;;;;;6.60;86.88;98455.84;5117363;28;20287;-64
2024/01/06 03:18:37;;;;;;;4.30;1.38;;;;;;;6.64;86.67;98467.66;5118623;28;20047;-64
2024/01/06 03:21:05;;;;;;;1.80;1.45;;;;;;;6.64;86.81;98462.59;5118349;28;20435;-65
2024/01/06 03:23:34;;;;;;;2.57;1.47;;;;;;;6.63;86.53;98465.97;5118457;28;20043;-65
2024/01/06 03:26:07;;;;;;;1.20;1.10;;;;;;;6.58;86.93;98470.22;5118024;28;20051;-64
2024/01/06 03:28:36;;;;;;;1.55;1.45;;;;;;;6.55;86.97;98465.16;5118478;28;20096;-65
2024/01/06 03:31:05;;;;;;;1.13;1.05;;;;;;;6.48;87.46;98460.13;5117825;28;20043;-64
2024/01/06 03:33:35;;;;;;;1.40;1.30;;;;;;;6.51;87.62;98460.09;5118003;28;20047;-65
2024/01/06 03:36:07;;;;;;;1.65;1.13;;;;;;;6.54;87.01;98448.28;5118372;28;20067;-66
2024/01/06 03:38:36;;;;;;;2.33;1.85;;;;;;;6.53;88.02;98446.59;5117723;28;20050;-67
2024/01/06 03:41:05;;;;;;;1.20;1.10;;;;;;;6.51;87.77;98460.97;5117662;28;20486;-67
2024/01/06 03:43:34;;;;;;;1.27;0.90;;;;;;;6.48;87.56;98458.44;5117576;28;20047;-65
2024/01/06 03:46:03;;;;;;;0.43;0.43;;;;;;;6.45;87.56;98466.06;5117828;28;20288;-65
2024/01/06 03:48:31;;;;;;;2.53;2.33;;;;;;;6.42;88.12;98461.00;5117750;28;20033;-65
2024/01/06 03:51:03;;;;;;;1.73;0.95;;;;;;;6.48;88.30;98458.44;5117735;28;20040;-65
2024/01/06 03:53:32;;;;;;;3.55;1.77;;;;;;;6.51;88.36;98463.50;5117480;28;20123;-65
2024/01/06 03:56:01;;;;;;;0.97;0.97;;;;;;;6.48;88.39;98460.97;5117496;28;20524;-65
2024/01/06 03:58:30;;;;;;;0.88;0.88;;;;;;;6.48;88.65;98460.97;5117652;28;20044;-64
2024/01/06 04:00:59;;;;;;;1.02;0.70;;;;;;;6.50;88.40;98459.25;5117830;28;20488;-65
2024/01/06 04:03:28;;;;;;;0.50;0.50;;;;;;;6.48;88.43;98449.97;5117596;28;20066;-65
2024/01/06 04:05:57;;;;;;;0.73;0.70;;;;;;;6.50;88.92;98459.25;5117446;28;20516;-65
2024/01/06 04:08:27;;;;;;;2.15;1.70;;;;;;;6.49;89.27;98452.53;5117429;28;20032;-66
2024/01/06 04:10:56;;;;;;;0.90;0.85;;;;;;;6.47;89.36;98449.16;5117470;28;20047;-65
2024/01/06 04:13:26;;;;;;;1.13;1.05;;;;;;;6.46;89.12;98447.47;5117381;28;20039;-65
2024/01/06 04:15:54;;;;;;;2.20;1.23;;;;;;;6.45;88.89;98450.00;5117338;28;20423;-65
2024/01/06 04:18:23;;;;;;;1.13;1.02;;;;;;;6.44;88.95;98438.19;5117223;28;20061;-65
2024/01/06 04:20:53;;;;;;;1.40;1.30;;;;;;;6.38;89.30;98433.16;5117190;28;20047;-65
2024/01/06 04:23:21;;;;;;;1.50;1.40;;;;;;;6.41;89.77;98428.91;5117163;27;20039;-64
2024/01/06 04:25:55;;;;;;;1.75;1.58;;;;;;;6.43;89.82;98427.19;5116448;28;20044;-64
2024/01/06 04:28:24;;;;;;;4.75;2.55;;;;;;;6.42;89.83;98424.69;5116779;28;20047;-65
2024/01/06 04:30:53;;;;;;;0.30;0.30;;;;;;;6.45;90.07;98423.00;5117221;28;20118;-65
2024/01/06 04:33:22;;;;;;;0.93;0.85;;;;;;;6.47;90.49;98422.97;5117233;28;20336;-65
2024/01/06 04:35:51;;;;;;;1.65;1.15;;;;;;;6.50;90.41;98426.31;5116972;28;20028;-65
2024/01/06 04:38:20;;;;;;;2.60;1.37;;;;;;;6.50;89.67;98418.72;5116780;28;20040;-66
2024/01/06 04:40:49;;;;;;;5.53;1.43;;;;;;;6.49;90.77;98416.19;5116500;28;20044;-66
2024/01/06 04:43:19;;;;;;;1.00;0.90;;;;;;;6.46;90.46;98419.59;5116400;28;20800;-66
2024/01/06 04:45:48;;;;;;;0.80;0.77;;;;;;;6.51;90.08;98419.56;5116730;28;20062;-67
2024/01/06 04:48:17;;;;;;;2.10;1.23;;;;;;;6.50;90.87;98411.09;5116288;28;20044;-65
2024/01/06 04:50:46;;;;;;;3.05;1.50;;;;;;;6.50;90.73;98413.63;5116691;28;20109;-65
2024/01/06 04:53:15;;;;;;;;;;;;;;;6.49;90.51;98414.50;5116659;28;20531;-64
2024/01/06 04:55:44;;;;;;;1.48;1.38;;;;;;;6.50;90.59;98418.72;5116102;28;19919;-65
2024/01/06 04:58:13;;;;;;;0.50;0.50;;;;;;;6.50;90.64;98418.72;5116361;28;20505;-64
2024/01/06 05:00:43;;;;;;;3.88;1.60;;;;;;;6.48;90.78;98420.41;5116180;28;20048;-65
2024/01/06 05:03:12;;;;;;;1.58;0.82;;;;;;;6.48;91.21;98420.41;5114910;28;20434;-65
2024/01/06 05:05:41;;;;;;;1.85;1.75;;;;;;;6.49;91.16;98424.66;5116382;28;20044;-65
2024/01/06 05:08:10;;;;;;;4.87;1.37;;;;;;;6.49;91.30;98427.19;5115861;28;20035;-67
2024/01/06 05:10:38;;;;;;;1.58;1.23;;;;;;;6.52;91.30;98432.25;5116216;28;20070;-65
2024/01/06 05:13:07;;;;;;;0.90;0.88;;;;;;;6.53;91.55;98428.00;5116191;28;20047;-66
2024/01/06 05:15:36;;;;;;;1.23;0.97;;;;;;;6.54;91.37;98424.63;5116561;28;20462;-65
2024/01/06 05:18:07;;;;;;;0.70;0.70;;;;;;;6.52;90.82;98437.31;5115997;28;20268;-66
2024/01/06 05:20:36;;;;;;;0.88;0.88;;;;;;;6.53;91.44;98436.44;5115751;28;20066;-65
2024/01/06 05:23:05;;;;;;;0.68;0.68;;;;;;;6.53;91.63;98433.91;5115837;28;20048;-66
2024/01/06 05:25:34;;;;;;;0.85;0.85;;;;;;;6.51;91.90;98440.69;5115918;28;20040;-66
2024/01/06 05:28:03;;;;;;;2.90;2.67;;;;;;;6.52;91.56;98447.44;5115547;28;20405;-66
2024/01/06 05:30:32;;;;;;;1.02;1.02;;;;;;;6.53;92.00;98453.34;5115845;28;20048;-66
2024/01/06 05:33:01;;;;;;;1.33;0.88;;;;;;;6.56;91.90;98438.97;5115806;28;20512;-65
2024/01/06 05:35:31;;;;;;;3.88;1.40;;;;;;;6.57;92.51;98450.81;5115685;28;20096;-65
2024/01/06 05:38:00;;;;;;;0.88;0.88;;;;;;;6.57;92.00;98442.34;5114460;28;20505;-65
2024/01/06 05:40:29;;;;;;;2.70;1.43;;;;;;;6.55;91.41;98431.38;5114360;28;20438;-65
2024/01/06 05:42:58;;;;;;;1.17;1.07;;;;;;;6.61;91.98;98437.25;5115600;28;20275;-65
2024/01/06 05:45:28;;;;;;;5.70;1.63;;;;;;;6.61;92.51;98432.19;5116060;28;20384;-65
2024/01/06 05:47:59;;;;;;;0.75;0.75;;;;;;;6.62;92.36;98435.56;5115190;28;20043;-65
2024/01/06 05:50:28;;;;;;;0.55;0.55;;;;;;;6.62;92.46;98435.56;5115249;28;20043;-65
2024/01/06 05:52:58;;;;;;;0.65;0.65;;;;;;;6.66;92.84;98447.38;5115085;28;20501;-65
2024/01/06 05:55:27;;;;;;;1.55;1.10;;;;;;;6.65;92.00;98444.00;5115057;28;20564;-65
2024/01/06 05:57:55;;;;;;;0.73;0.73;;;;;;;6.65;92.35;98448.22;5115729;28;20466;-65
2024/01/06 06:00:24;;;;;;;0.55;0.55;;;;;;;6.70;92.46;98461.72;5115206;28;20134;-66
2024/01/06 06:02:54;;;;;;;1.20;1.10;;;;;;;6.69;92.53;98460.03;5115437;28;20053;-64
2024/01/06 06:05:22;;;;;;;2.17;1.13;;;;;;;6.69;92.27;98471.00;5114750;28;20058;-64
2024/01/06 06:07:51;;;;;;;11.80;1.17;;;;;;;6.66;92.86;98465.97;5115118;28;20272;-65
2024/01/06 06:10:22;;;;;;;1.58;0.90;;;;;;;6.68;93.04;98483.69;5115023;28;20272;-65
2024/01/06 06:12:51;;;;;;;1.85;1.10;;;;;;;6.69;92.64;98485.38;5114993;28;20048;-66
2024/01/06 06:15:20;;;;;;;0.85;0.85;;;;;;;6.70;93.14;98492.97;5114627;28;20069;-65
2024/01/06 06:17:49;;;;;;;3.30;1.55;;;;;;;6.69;92.53;98498.88;5114747;28;20139;-65
2024/01/06 06:20:18;;;;;;;0.35;0.35;;;;;;;6.72;92.48;98506.47;5115429;27;20512;-65
2024/01/06 06:22:48;;;;;;;0.90;0.82;;;;;;;6.71;93.00;98509.03;5114459;28;20044;-66
2024/01/06 06:25:17;;;;;;;3.40;0.98;;;;;;;6.72;92.47;98509.00;5114811;28;20059;-65
2024/01/06 06:27:47;;;;;;;1.35;1.15;;;;;;;6.72;92.61;98519.16;5114720;27;20040;-64
2024/01/06 06:30:16;;;;;;;1.05;0.95;;;;;;;6.72;93.14;98516.63;5114666;27;20577;-65
2024/01/06 06:32:46;;;;;;;1.90;1.75;;;;;;;6.72;93.04;98521.69;5114351;28;20050;-66
2024/01/06 06:35:14;;;;;;;0.65;0.65;;;;;;;6.72;93.49;98523.38;5114417;28;20043;-64
2024/01/06 06:37:43;;;;;;;1.13;1.03;;;;;;;6.67;93.20;98518.34;5114373;28;20032;-66
2024/01/06 06:40:13;;;;;;;2.47;1.98;;;;;;;6.70;93.30;98518.31;5114336;28;20721;-65
2024/01/06 06:42:42;;;;;;;2.08;1.95;;;;;;;6.66;93.77;98526.81;5114848;28;20036;-65
2024/01/06 06:45:12;;;;;;;1.52;1.33;;;;;;;6.67;93.25;98528.47;5113204;28;20035;-64
2024/01/06 06:47:41;;;;;;;1.55;1.45;;;;;;;6.64;93.23;98528.50;5114136;28;20043;-65
2024/01/06 06:50:10;;;;;;;2.23;1.50;;;;;;;6.66;93.99;98536.09;5113803;28;20074;-66
2024/01/06 06:52:39;;;;;;;2.90;1.50;;;;;;;6.66;93.86;98524.25;5113340;28;20040;-65
2024/01/06 06:55:09;;;;;;;0.73;0.73;;;;;;;6.66;93.45;98521.72;5114065;28;20051;-65
2024/01/06 06:57:37;;;;;;;;;;;;;;;6.66;93.69;98521.72;5114136;28;20032;-65
2024/01/06 07:00:08;;;;;;;0.93;0.85;;;;;;;6.70;93.25;98518.31;5114272;28;19923;-65
2024/01/06 07:02:38;;;;;;;0.75;0.75;;;;;;;6.70;93.89;98508.19;5113909;28;20055;-66
2024/01/06 07:05:08;;;;;;;1.30;1.20;;;;;;;6.73;93.78;98520.00;5113018;28;20410;-65
2024/01/06 07:07:37;;;;;;;1.55;1.00;;;;;;;6.73;93.94;98527.63;5113008;28;20035;-66
2024/01/06 07:10:07;;;;;;;1.58;1.23;;;;;;;6.75;93.97;98525.91;5113922;28;20063;-67
2024/01/06 07:12:37;;;;;;;0.77;0.77;;;;;;;6.78;94.17;98519.97;5113110;28;20478;-65
2024/01/06 07:15:07;;;;;;;;;;;;;;;6.80;93.80;98518.28;5114279;28;20062;-64
2024/01/06 07:17:38;;;;;;;1.92;1.35;;;;;;;6.80;94.38;98523.34;5112658;28;19927;-66
2024/01/06 07:20:09;;;;;;;4.60;3.13;;;;;;;6.80;94.04;98513.22;5113867;28;20510;-64
2024/01/06 07:22:38;;;;;;;0.65;0.65;;;;;;;6.80;94.64;98518.28;5114144;28;20092;-65
2024/01/06 07:25:07;;;;;;;1.13;1.02;;;;;;;6.81;94.28;98519.97;5113700;28;20051;-66
2024/01/06 07:27:36;;;;;;;2.03;1.33;;;;;;;6.80;94.21;98519.13;5114052;28;20039;-63
2024/01/06 07:30:07;;;;;;;1.03;0.87;;;;;;;6.78;94.40;98515.75;5114023;28;20044;-64
2024/01/06 07:32:38;;;;;;;0.63;0.63;;;;;;;6.75;94.34;98510.69;5114039;28;20276;-65
2024/01/06 07:35:07;;;;;;;2.63;1.08;;;;;;;6.78;94.29;98510.69;5114079;28;20126;-66
2024/01/06 07:37:36;;;;;;;3.10;1.50;;;;;;;6.81;94.81;98514.91;5113486;28;20516;-64
2024/01/06 07:40:06;;;;;;;0.70;0.70;;;;;;;6.82;95.10;98507.28;5113940;28;20036;-66
2024/01/06 07:42:36;;;;;;;1.70;1.48;;;;;;;6.83;95.04;98503.06;5111679;28;20063;-66
2024/01/06 07:45:06;;;;;;;3.05;1.52;;;;;;;6.85;94.87;98502.19;5113907;28;20035;-66
2024/01/06 07:47:35;;;;;;;1.25;1.15;;;;;;;6.88;94.85;98501.34;5112551;28;20052;-64
2024/01/06 07:50:08;;;;;;;0.60;0.60;;;;;;;6.79;94.57;98476.03;5113869;28;20070;-65
2024/01/06 07:52:37;;;;;;;0.43;0.43;;;;;;;6.88;94.60;98494.59;5113462;28;20068;-64
2024/01/06 07:55:06;;;;;;;4.88;2.13;;;;;;;6.90;94.61;98494.56;5113451;28;20059;-64
2024/01/06 07:57:35;;;;;;;0.60;0.57;;;;;;;6.89;94.35;98492.88;5113442;28;20046;-64
2024/01/06 08:00:05;;;;;;;1.23;1.13;;;;;;;6.91;94.78;98492.00;5113464;28;20050;-66
2024/01/06 08:02:40;;;;;;;0.80;0.80;;;;;;;6.93;95.67;98489.50;5116603;28;20406;-64
2024/01/06 08:05:10;;;;;;;0.70;0.70;;;;;;;6.94;94.65;98483.53;5116049;28;20428;-64
2024/01/06 08:07:40;;;;;;;1.25;1.05;;;;;;;6.94;95.25;98481.00;5117121;28;20047;-64
2024/01/06 08:10:09;;;;;;;3.00;1.95;;;;;;;6.96;95.16;98484.41;5117358;28;20035;-65
2024/01/06 08:12:38;;;;;;;1.33;1.23;;;;;;;6.97;95.23;98497.06;5117337;28;20046;-64
2024/01/06 08:15:09;;;;;;;0.93;0.80;;;;;;;6.90;94.50;98484.44;5117358;28;20489;-65
2024/01/06 08:17:40;;;;;;;0.43;0.43;;;;;;;6.97;94.75;98507.22;5117087;28;20284;-64
2024/01/06 08:20:11;;;;;;;0.70;0.70;;;;;;;6.93;95.04;98499.63;5117796;28;20392;-65
2024/01/06 08:22:40;;;;;;;2.55;2.15;;;;;;;6.97;95.62;98511.44;5116830;28;20039;-64
2024/01/06 08:25:10;;;;;;;0.37;0.37;;;;;;;7.00;95.28;98521.56;5117065;28;20398;-66
2024/01/06 08:27:40;;;;;;;1.08;1.00;;;;;;;6.98;95.76;98508.06;5098836;28;20054;-66
2024/01/06 08:30:09;;;;;;;1.25;1.15;;;;;;;6.97;95.42;98521.59;5116598;28;20036;-67
2024/01/06 08:32:39;;;;;;;2.55;2.35;;;;;;;6.97;95.53;98527.50;5117199;28;20044;-66
2024/01/06 08:35:08;;;;;;;1.08;0.93;;;;;;;6.97;95.18;98521.59;5116577;27;20040;-64
2024/01/06 08:37:39;;;;;;;1.77;1.23;;;;;;;6.97;95.55;98521.59;5116703;28;20046;-65
2024/01/06 08:40:09;;;;;;;1.65;1.55;;;;;;;7.00;95.60;98526.66;5116940;28;20044;-66
2024/01/06 08:42:38;;;;;;;2.67;1.60;;;;;;;6.98;94.67;98531.69;5116769;28;20073;-65
2024/01/06 08:45:07;;;;;;;0.55;0.55;;;;;;;6.99;95.53;98535.09;5116415;28;20048;-64
2024/01/06 08:47:36;;;;;;;0.77;0.77;;;;;;;7.00;95.64;98539.31;5115416;28;20092;-65
2024/01/06 08:50:06;;;;;;;1.53;1.43;;;;;;;6.96;95.05;98524.97;5116719;28;20067;-65
2024/01/06 08:52:35;;;;;;;0.88;0.88;;;;;;;7.03;95.72;98532.53;5116564;28;20413;-65
2024/01/06 08:55:06;;;;;;;1.67;1.07;;;;;;;7.05;95.14;98532.53;5116222;28;20051;-66
2024/01/06 08:57:36;;;;;;;0.57;0.57;;;;;;;7.04;95.29;98528.31;5116482;28;20071;-65
2024/01/06 09:00:09;;;;;;;0.40;0.40;;;;;;;7.04;95.61;98518.16;5116738;28;20074;-65
2024/01/06 09:02:38;;;;;;;0.38;0.38;;;;;;;7.04;95.57;98515.63;5116447;28;20166;-65
2024/01/06 09:05:07;;;;;;;2.53;1.40;;;;;;;7.08;95.58;98519.84;5115908;28;20044;-66
2024/01/06 09:07:36;;;;;;;2.00;1.85;;;;;;;7.12;96.19;98521.50;5114099;28;20142;-65
2024/01/06 09:10:09;;;;;;;1.88;1.73;;;;;;;7.14;95.70;98527.41;5116437;28;20036;-66
2024/01/06 09:12:38;;;;;;;3.22;2.30;;;;;;;7.15;96.30;98532.47;5115800;28;20134;-66
2024/01/06 09:15:08;;;;;;;2.28;1.20;;;;;;;7.12;95.38;98526.59;5115880;28;20107;-65
2024/01/06 09:17:37;;;;;;;1.52;1.42;;;;;;;7.10;95.58;98523.22;5115667;28;20122;-65
2024/01/06 09:20:06;;;;;;;2.17;1.48;;;;;;;7.06;95.93;98519.00;5115772;28;20050;-65
2024/01/06 09:22:36;;;;;;;2.95;1.85;;;;;;;7.14;95.89;98530.78;5116300;28;20140;-66
2024/01/06 09:25:07;;;;;;;1.17;1.08;;;;;;;7.12;96.30;98521.50;5115665;28;20051;-68
2024/01/06 09:27:36;;;;;;;8.80;2.05;;;;;;;7.10;96.24;98528.28;5115713;28;20035;-66
2024/01/06 09:30:06;;;;;;;0.40;0.40;;;;;;;7.06;96.09;98516.44;5115642;28;20040;-66
2024/01/06 09:32:35;;;;;;;1.55;1.17;;;;;;;7.12;96.60;98518.97;5115885;28;20069;-66
2024/01/06 09:35:04;;;;;;;1.50;1.40;;;;;;;7.13;96.09;98523.19;5115353;28;20108;-66
2024/01/06 09:37:33;;;;;;;0.90;0.90;;;;;;;7.10;96.03;98513.06;5115741;28;20044;-66
2024/01/06 09:40:02;;;;;;;0.73;0.73;;;;;;;7.07;96.40;98513.06;5115240;28;20044;-67
2024/01/06 09:42:33;;;;;;;0.68;0.68;;;;;;;7.08;96.65;98502.91;5115862;28;20036;-68
2024/01/06 09:45:01;;;;;;;0.40;0.40;;;;;;;7.10;96.24;98503.75;5115581;28;20047;-68
2024/01/06 09:47:35;;;;;;;0.97;0.97;;;;;;;7.12;96.53;98501.22;5115511;28;20043;-67
2024/01/06 09:50:09;;;;;;;0.85;0.73;;;;;;;7.15;95.90;98504.56;5115716;28;20047;-65
2024/01/06 09:52:41;;;;;;;3.42;2.38;;;;;;;7.13;96.26;98500.34;5114001;28;20039;-66
2024/01/06 09:55:12;;;;;;;0.75;0.75;;;;;;;7.14;96.33;98496.97;5115079;28;20055;-66
2024/01/06 09:57:46;;;;;;;1.95;1.77;;;;;;;7.18;96.68;98498.63;5113796;28;20078;-66
2024/01/06 10:00:15;;;;;;;0.55;0.55;;;;;;;7.20;96.61;98504.53;5115316;28;20039;-67
2024/01/06 10:02:46;;;;;;;0.70;0.70;;;;;;;7.17;96.77;98499.50;5114881;28;20524;-66
2024/01/06 10:05:16;;;;;;;1.65;1.35;;;;;;;7.18;96.92;98507.09;5114680;28;20493;-67
2024/01/06 10:07:46;;;;;;;1.40;1.30;;;;;;;7.20;97.39;98509.59;5115129;28;20114;-67
2024/01/06 10:10:16;;;;;;;0.50;0.50;;;;;;;7.19;96.89;98508.78;5113843;28;20043;-66
2024/01/06 10:12:46;;;;;;;1.48;1.38;;;;;;;7.21;97.04;98508.75;5113814;28;20445;-66
2024/01/06 10:15:16;;;;;;;1.45;1.33;;;;;;;7.18;96.95;98507.09;5115002;28;20497;-66
2024/01/06 10:17:45;;;;;;;1.13;1.05;;;;;;;7.18;96.87;98496.09;5114047;28;20036;-66
2024/01/06 10:20:15;;;;;;;1.00;1.00;;;;;;;7.15;97.25;98486.78;5114516;28;20036;-67
2024/01/06 10:22:44;;;;;;;0.32;0.32;;;;;;;7.13;96.90;98488.50;5114853;28;20040;-66
2024/01/06 10:25:13;;;;;;;2.83;1.70;;;;;;;7.12;97.13;98480.91;5114121;28;20115;-66
2024/01/06 10:27:42;;;;;;;0.73;0.73;;;;;;;7.12;96.91;98486.00;5114387;28;20134;-65
2024/01/06 10:30:17;;;;;;;0.90;0.90;;;;;;;7.12;97.36;98491.91;5114739;28;20063;-66
2024/01/06 10:32:47;;;;;;;0.55;0.55;;;;;;;7.15;97.10;98493.59;5096443;28;20047;-66
2024/01/06 10:35:16;;;;;;;0.40;0.40;;;;;;;7.19;97.46;98490.16;5113396;28;20039;-67
2024/01/06 10:37:46;;;;;;;0.40;0.40;;;;;;;7.20;97.26;98487.63;5114285;28;20040;-68
2024/01/06 10:40:17;;;;;;;0.68;0.68;;;;;;;7.20;97.41;98484.22;5112910;28;20044;-67
2024/01/06 10:42:47;;;;;;;0.40;0.40;;;;;;;7.22;98.04;98487.63;5114337;28;20428;-66
2024/01/06 10:45:17;;;;;;;1.45;1.35;;;;;;;7.24;98.27;98501.13;5114415;28;20409;-66
2024/01/06 10:47:46;;;;;;;1.20;1.13;;;;;;;7.24;98.02;98491.00;5114509;28;20044;-66
2024/01/06 10:50:18;;;;;;;0.52;0.52;;;;;;;7.23;97.51;98479.13;5114226;28;20138;-68
2024/01/06 10:52:48;;;;;;;0.50;0.50;;;;;;;7.21;97.63;98466.47;5113770;28;20470;-66
2024/01/06 10:55:19;;;;;;;1.77;1.67;;;;;;;7.21;98.10;98456.31;5114308;28;20067;-68
2024/01/06 10:57:52;;;;;;;1.48;0.82;;;;;;;7.16;98.25;98452.97;5114345;28;20058;-66
2024/01/06 11:00:22;;;;;;;0.70;0.70;;;;;;;7.18;97.91;98460.56;5113594;28;20043;-66
2024/01/06 11:02:53;;;;;;;0.68;0.68;;;;;;;7.18;97.72;98460.56;5114335;28;20130;-67
2024/01/06 11:05:23;;;;;;;0.73;0.52;;;;;;;7.21;98.30;98455.47;5114154;28;20055;-67
2024/01/06 11:07:59;;;;;;;2.00;1.42;;;;;;;7.22;98.27;98457.19;5114198;28;20485;-68
2024/01/06 11:10:29;;;;;;;0.35;0.35;;;;;;;7.20;98.22;98458.84;5113248;28;20039;-66
2024/01/06 11:13:11;;;;;;;2.35;1.83;;;;;;;7.19;98.33;98469.88;5114333;28;20131;-66
2024/01/06 11:15:43;;;;;;;2.40;1.20;;;;;;;7.18;98.43;98473.25;5113896;28;20048;-66
2024/01/06 11:18:37;;;;;;;1.17;0.73;;;;;;;7.18;98.70;98450.41;5113960;28;20490;-65
2024/01/06 11:21:21;;;;;;;2.15;1.90;;;;;;;7.18;98.68;98427.59;5113875;28;20048;-68
2024/01/06 11:24:17;;;;;;;1.45;1.35;;;;;;;7.20;98.69;98426.72;5113757;28;20052;-67
2024/01/06 11:26:46;;;;;;;1.27;1.15;;;;;;;7.20;99.30;98429.25;5114251;28;20047;-67
2024/01/06 11:29:15;;;;;;;2.42;2.20;;;;;;;7.19;98.40;98421.66;5113927;28;20123;-66
2024/01/06 11:32:15;;;;;;;0.40;0.40;;;;;;;7.23;98.98;98423.31;5112697;28;20042;-68
2024/01/06 11:34:48;;;;;;;3.33;2.13;;;;;;;7.24;99.04;98425.88;5113939;28;20397;-67
2024/01/06 11:37:24;;;;;;;4.32;1.63;;;;;;;7.22;98.34;98431.81;5116439;28;20459;-67
2024/01/06 11:39:54;;;;;;;1.05;1.05;;;;;;;7.20;99.23;98428.41;5117878;28;20039;-66
2024/01/06 11:42:32;;;;;;;2.97;2.40;;;;;;;7.20;99.30;98424.19;5117862;28;20062;-66
2024/01/06 11:45:04;;;;;;;1.13;1.02;;;;;;;7.20;98.98;98413.19;5117526;28;20493;-65
2024/01/06 11:47:36;;;;;;;4.28;3.17;;;;;;;7.24;99.42;98419.94;5117601;28;20096;-66
2024/01/06 11:50:06;;;;;;;1.95;1.75;;;;;;;7.27;99.16;98414.84;5117801;28;20040;-67
2024/01/06 11:52:35;;;;;;;0.88;0.88;;;;;;;7.27;98.95;98417.38;5118667;28;20084;-68
2024/01/06 11:55:05;;;;;;;1.85;1.23;;;;;;;7.25;99.23;98424.16;5117468;28;20546;-66
2024/01/06 11:57:33;;;;;;;;;;;;;;;7.28;99.68;98431.75;5116561;28;20052;-68